Airfield :
LOGIN :

Register | Disclaimer

   EN    FR    IT 

 










Legend :    VFR   Marginal VFR   IFR   Intensive IFR   Very Intensive IFR
Visi :
Ceiling :
>= 8 km
>= 3000ft
5 to 8 km
1000 to 3000 ft
1500m to 5 km
500 to 1000 ft
800 to 1500m
200 to 500 ft
< 800m
< 200 ft
Symbols :   Thunderstorms  Fog  Heavy snow  Heavy precipitations  Wind > 20 kt
SIGMETs :     Misc.  Thunderstorms  Icing  Turbulence  Mountain Waves  Volcanic Ashes






- Airport Elevation : 405 ft
- IATA code : ODH


EGVO - RAF Odiham

CURRENT METAR :
  • 112150Z 23006KT CAVOK 02/01 Q1003 RMK BLU

EXPIRED METARs :
  • 112050Z 25010KT CAVOK 03/02 Q1003 RMK BLU
  • 111950Z 26011KT CAVOK 03/02 Q1002 RMK BLU

TAF TAF EGVO
Valid from the 11 at 21:00 until the 12 at 09:00 UTC


111941Z 1121/1209 26010KT 9999 FEW030
PROB30
TEMPO 1123/1206 SCT005
PROB40
TEMPO 1208/1209 -RA SCT018



MET'MAP, your aeronautical weather chart ! - Copyright ORBIFLY December 2007 - Disclaimer

ORBIFLY MET'MAP TEAM :

Programming & Development : Alexandra Zaïnal
Concept & original design : Baudouin d'Aumeries
Assistance for programming : Marc-Olivier Méhu
Technical & hardware support : Manuel Goepfert

Contact : metmap@orbifly.com




SOURCES & CREDITS :

   NOAA